Time;durP1;ratioP1;P1;durP2;ratioP2;P2;SDS_P1;SDS_P2;PMS_P1;PMS_P2;Temp;Humidity;BMP_temperature;BMP_pressure;BME280_temperature;BME280_humidity;BME280_pressure;Samples;Min_cycle;Max_cycle;Signal;HPM_P1;HPM_P2
2024/01/15 00:01:29;;;;;;;13.60;8.80;;;;;;;-1.15;100.00;97364.12;433235;1256;140527;-64
2024/01/15 00:11:35;;;;;;;14.70;11.30;;;;;;;-1.16;100.00;97343.27;433287;1256;140651;-63
2024/01/15 00:21:40;;;;;;;15.90;11.40;;;;;;;-1.18;100.00;97318.81;432346;1256;142232;-63
2024/01/15 00:31:46;;;;;;;13.60;9.80;;;;;;;-1.22;100.00;97313.02;432821;1256;140658;-63
2024/01/15 00:41:52;;;;;;;15.70;11.10;;;;;;;-1.26;100.00;97291.90;433093;1257;140208;-64
2024/01/15 00:51:58;;;;;;;15.70;11.40;;;;;;;-1.26;100.00;97279.39;432636;1260;140687;-64
2024/01/15 01:02:04;;;;;;;11.60;10.10;;;;;;;-1.23;100.00;97266.73;432829;1260;140359;-65
2024/01/15 01:12:10;;;;;;;15.40;10.50;;;;;;;-1.20;100.00;97249.90;434519;1259;141051;-64
2024/01/15 01:22:16;;;;;;;16.30;10.20;;;;;;;-1.19;100.00;97244.33;433195;1259;140448;-63
2024/01/15 01:32:22;;;;;;;11.80;9.50;;;;;;;-1.17;100.00;97227.38;433918;1256;142432;-63
2024/01/15 01:42:27;;;;;;;11.40;8.90;;;;;;;-1.22;100.00;97215.12;432874;1255;141080;-64
2024/01/15 01:52:34;;;;;;;11.10;8.00;;;;;;;-1.22;100.00;97198.34;433123;1259;140207;-64
2024/01/15 02:02:38;;;;;;;;;;;;;;;-1.19;100.00;97181.35;434537;1256;139912;-64
2024/01/15 02:12:45;;;;;;;12.70;9.40;;;;;;;-1.16;100.00;97166.58;432858;1259;129229;-64
2024/01/15 02:22:51;;;;;;;8.50;6.80;;;;;;;-1.20;100.00;97155.31;432738;1257;303404;-64
2024/01/15 02:32:57;;;;;;;9.90;7.60;;;;;;;-1.25;100.00;97149.75;432810;1256;139705;-64
2024/01/15 02:43:03;;;;;;;11.20;10.00;;;;;;;-1.34;100.00;97138.21;432832;1260;207595;-63
2024/01/15 02:53:09;;;;;;;15.80;10.80;;;;;;;-1.40;100.00;97122.20;432997;1256;141186;-63
2024/01/15 03:03:15;;;;;;;14.10;9.40;;;;;;;-1.41;100.00;97106.66;434239;1256;140298;-63
2024/01/15 03:13:20;;;;;;;11.30;9.90;;;;;;;-1.43;100.00;97089.41;433134;1260;140981;-64
2024/01/15 03:23:26;;;;;;;10.20;7.70;;;;;;;-1.44;100.00;97083.82;432912;1260;140629;-63
2024/01/15 03:33:32;;;;;;;10.10;7.80;;;;;;;-1.48;100.00;97068.74;432823;1256;140955;-64
2024/01/15 03:43:38;;;;;;;10.90;9.10;;;;;;;-1.51;100.00;97066.37;433384;1256;140324;-63
2024/01/15 03:53:44;;;;;;;12.90;10.80;;;;;;;-1.52;100.00;97050.10;432922;1259;142517;-64
2024/01/15 04:03:49;;;;;;;13.50;9.40;;;;;;;-1.56;100.00;97039.33;433252;1256;140009;-63
2024/01/15 04:13:55;;;;;;;10.40;8.90;;;;;;;-1.61;100.00;97025.40;432779;1260;140610;-63
2024/01/15 04:24:01;;;;;;;12.10;9.20;;;;;;;-1.64;100.00;97023.52;432673;1260;139999;-63
2024/01/15 04:34:07;;;;;;;12.00;10.40;;;;;;;-1.61;100.00;97017.67;432655;1256;140645;-64
2024/01/15 04:44:13;;;;;;;17.40;12.10;;;;;;;-1.58;100.00;97008.08;434049;1259;140116;-63
2024/01/15 04:54:18;;;;;;;14.20;10.90;;;;;;;-1.58;100.00;97000.48;432720;1259;140219;-63
2024/01/15 05:04:25;;;;;;;14.90;11.40;;;;;;;-1.57;100.00;96997.71;432617;1256;141703;-63
2024/01/15 05:14:31;;;;;;;15.00;10.50;;;;;;;-1.59;100.00;96992.33;436463;1256;140170;-63
2024/01/15 05:24:37;;;;;;;12.50;9.10;;;;;;;-1.58;100.00;96988.32;432612;1256;140693;-64
2024/01/15 05:34:42;;;;;;;12.20;8.60;;;;;;;-1.56;100.00;96974.84;432815;1259;183605;-64
2024/01/15 05:44:48;;;;;;;11.40;8.60;;;;;;;-1.55;100.00;96961.76;433194;1256;141017;-63
2024/01/15 05:54:54;;;;;;;14.50;9.50;;;;;;;-1.53;100.00;96957.04;433549;1256;141402;-64
2024/01/15 06:05:01;;;;;;;13.10;9.20;;;;;;;-1.51;100.00;96952.06;433347;1256;140809;-64
2024/01/15 06:15:08;;;;;;;13.00;8.20;;;;;;;-1.50;100.00;96943.27;433250;1259;140791;-64
2024/01/15 06:25:14;;;;;;;11.40;8.80;;;;;;;-1.57;100.00;96935.27;434814;1260;140125;-64
2024/01/15 06:35:20;;;;;;;15.20;10.60;;;;;;;-1.66;100.00;96934.27;432815;1256;142016;-67
2024/01/15 06:45:28;;;;;;;15.40;11.50;;;;;;;-1.73;100.00;96935.27;434309;1261;141817;-69
2024/01/15 07:07:20;;;;;;;13.80;10.90;;;;;;;-1.75;100.00;96950.19;442112;1252;139818;-62
2024/01/15 07:17:26;;;;;;;12.00;10.00;;;;;;;-1.74;100.00;96959.56;434091;1256;141150;-75
2024/01/15 07:27:32;;;;;;;12.30;8.90;;;;;;;-1.73;100.00;96980.06;435132;1257;140967;-68
2024/01/15 07:37:38;;;;;;;8.30;7.10;;;;;;;-1.66;100.00;97001.65;436101;1258;140555;-67
2024/01/15 07:47:44;;;;;;;9.20;7.60;;;;;;;-1.65;100.00;97007.58;436938;1256;140459;-64
2024/01/15 07:57:52;;;;;;;7.30;6.60;;;;;;;-1.58;100.00;97008.91;432813;1256;140491;-75
2024/01/15 08:08:08;;;;;;;10.30;7.00;;;;;;;-1.26;100.00;97016.04;435763;1258;139685;-67
2024/01/15 08:18:12;;;;;;;;;;;;;;;-0.93;100.00;97010.04;432895;1256;140897;-73
2024/01/15 08:28:18;;;;;;;7.20;5.50;;;;;;;-0.59;100.00;97016.80;433386;1257;126976;-68
2024/01/15 08:38:25;;;;;;;6.00;5.00;;;;;;;-0.52;100.00;97021.21;432881;1256;139604;-64
2024/01/15 08:48:31;;;;;;;6.90;5.80;;;;;;;-0.62;100.00;97027.63;432712;1257;141562;-66
2024/01/15 08:58:37;;;;;;;9.40;7.70;;;;;;;-0.69;100.00;97012.09;432787;1257;139936;-65
2024/01/15 09:08:43;;;;;;;6.60;5.30;;;;;;;-0.68;100.00;97005.85;433099;1260;140879;-63
2024/01/15 09:18:48;;;;;;;7.90;7.10;;;;;;;-0.74;100.00;97006.70;432889;1259;140236;-69
2024/01/15 09:28:54;;;;;;;12.00;7.40;;;;;;;-0.75;100.00;97008.14;433861;1257;141179;-64
2024/01/15 09:39:00;;;;;;;15.20;10.10;;;;;;;-0.84;100.00;97002.12;433004;1260;140785;-64
2024/01/15 09:49:06;;;;;;;10.10;7.40;;;;;;;-0.94;100.00;97002.06;432903;1260;140453;-67
2024/01/15 09:59:12;;;;;;;9.10;7.00;;;;;;;-0.83;100.00;96988.48;433205;1259;140543;-67
2024/01/15 10:09:18;;;;;;;6.80;4.50;;;;;;;-0.63;100.00;96982.48;433284;1256;140084;-65
2024/01/15 10:19:25;;;;;;;6.60;5.50;;;;;;;-0.52;100.00;96983.93;435023;1256;141421;-67
2024/01/15 10:29:31;;;;;;;10.90;6.60;;;;;;;-0.62;100.00;96977.47;432894;1256;141132;-64
2024/01/15 10:39:37;;;;;;;11.00;6.30;;;;;;;-0.72;100.00;96980.66;432878;1256;140755;-65
2024/01/15 10:49:44;;;;;;;11.80;8.40;;;;;;;-0.76;100.00;96967.45;432819;1261;140767;-67
2024/01/15 10:59:50;;;;;;;11.10;7.20;;;;;;;-0.77;100.00;96959.79;435500;1258;141183;-67
2024/01/15 11:09:58;;;;;;;7.60;5.40;;;;;;;-0.80;100.00;96965.48;433031;1261;140341;-69
2024/01/15 11:20:09;;;;;;;14.80;6.30;;;;;;;-0.70;100.00;96962.48;433361;1258;140304;-64
2024/01/15 11:30:15;;;;;;;12.50;7.20;;;;;;;-0.67;100.00;96961.30;434689;1259;140375;-73
2024/01/15 11:40:22;;;;;;;9.50;6.30;;;;;;;-0.72;100.00;96947.98;432738;1256;141236;-68
2024/01/15 11:50:31;;;;;;;8.30;6.30;;;;;;;-0.75;100.00;96944.77;435717;1260;140181;-68
2024/01/15 12:00:42;;;;;;;10.10;5.50;;;;;;;-0.70;100.00;96949.10;433207;1259;140396;-64
2024/01/15 12:10:49;;;;;;;12.90;6.40;;;;;;;-0.55;100.00;96943.20;434108;1260;141298;-65
2024/01/15 12:20:56;;;;;;;9.80;5.70;;;;;;;-0.49;100.00;96951.94;433063;1260;140227;-64
2024/01/15 12:31:05;;;;;;;8.20;4.90;;;;;;;-0.49;100.00;96953.15;433176;1259;143682;-65
2024/01/15 12:41:11;;;;;;;9.50;6.60;;;;;;;-0.55;100.00;96958.13;433644;1256;140489;-62
2024/01/15 12:51:17;;;;;;;12.10;6.30;;;;;;;-0.42;100.00;96960.13;432943;1256;140136;-66
2024/01/15 13:01:23;;;;;;;8.80;6.80;;;;;;;-0.49;100.00;96959.85;433172;1261;140360;-63
2024/01/15 13:11:29;;;;;;;8.00;5.50;;;;;;;-0.68;100.00;96960.98;432793;1260;140041;-60
2024/01/15 13:21:35;;;;;;;9.80;5.80;;;;;;;-0.69;100.00;96957.27;433448;1256;140268;-62
2024/01/15 13:31:41;;;;;;;11.50;8.10;;;;;;;-0.59;100.00;96947.70;433032;1260;141623;-61
2024/01/15 13:41:47;;;;;;;11.60;8.50;;;;;;;-0.55;100.00;96938.39;433375;1260;140954;-62
2024/01/15 13:51:53;;;;;;;13.20;8.00;;;;;;;-0.62;100.00;96936.39;432843;1256;140123;-61
2024/01/15 14:01:58;;;;;;;11.20;7.10;;;;;;;-0.71;100.00;96940.24;432791;1256;140595;-62
2024/01/15 14:12:04;;;;;;;11.30;6.80;;;;;;;-0.80;100.00;96945.18;432719;1260;140311;-61
2024/01/15 14:22:09;;;;;;;;;;;;;;;-0.86;100.00;96944.35;433014;1258;140810;-67
2024/01/15 14:32:15;;;;;;;10.60;6.10;;;;;;;-0.83;100.00;96952.63;433338;1260;164694;-69
2024/01/15 14:42:21;;;;;;;6.10;4.10;;;;;;;-0.84;100.00;96947.66;433077;1260;140673;-61
2024/01/15 14:52:26;;;;;;;8.90;5.80;;;;;;;-0.92;100.00;96954.67;432726;1260;140289;-63
2024/01/15 15:02:32;;;;;;;9.50;4.00;;;;;;;-0.96;100.00;96955.44;433292;1257;140002;-68
2024/01/15 15:12:38;;;;;;;8.90;6.20;;;;;;;-1.05;100.00;96954.24;433154;1260;139949;-68
2024/01/15 15:22:44;;;;;;;9.20;5.90;;;;;;;-1.11;100.00;96963.01;433039;1260;140359;-67
2024/01/15 15:32:49;;;;;;;11.90;5.60;;;;;;;-1.14;100.00;96966.30;433801;1261;140907;-67
2024/01/15 15:42:56;;;;;;;12.20;4.70;;;;;;;-1.20;100.00;96967.67;435069;1260;141889;-67
2024/01/15 15:53:03;;;;;;;6.80;4.50;;;;;;;-1.21;100.00;96975.75;433750;1257;141114;-67
2024/01/15 16:03:09;;;;;;;9.90;6.10;;;;;;;-1.26;100.00;96985.31;433808;1262;140108;-68
2024/01/15 16:13:15;;;;;;;12.20;7.20;;;;;;;-1.34;100.00;96994.88;433823;1260;140071;-69
2024/01/15 16:23:20;;;;;;;32.80;17.60;;;;;;;-1.37;100.00;96990.57;432540;1262;141378;-69
2024/01/15 16:33:46;;;;;;;8.70;7.20;;;;;;;-1.47;100.00;96993.20;432703;1260;140776;-68
2024/01/15 16:43:59;;;;;;;13.90;6.70;;;;;;;-1.51;100.00;96990.67;432800;1260;140847;-68
2024/01/15 16:54:05;;;;;;;11.30;6.20;;;;;;;-1.41;100.00;96986.50;432877;1261;141113;-68
2024/01/15 17:04:11;;;;;;;10.40;5.00;;;;;;;-1.31;100.00;96992.31;432873;1260;141212;-65
2024/01/15 17:14:18;;;;;;;14.90;7.40;;;;;;;-1.34;100.00;96998.13;432545;1260;140219;-69
2024/01/15 17:24:23;;;;;;;9.50;6.30;;;;;;;-1.37;100.00;96995.38;432916;1258;142527;-66
2024/01/15 17:34:29;;;;;;;7.70;4.70;;;;;;;-1.39;100.00;96997.05;432876;1261;140068;-65
2024/01/15 17:44:35;;;;;;;17.50;9.80;;;;;;;-1.38;100.00;97002.16;433192;1258;140615;-70
2024/01/15 17:54:41;;;;;;;7.60;4.50;;;;;;;-1.36;100.00;97000.17;432831;1257;140361;-69
2024/01/15 18:04:46;;;;;;;9.10;6.20;;;;;;;-1.31;100.00;96997.14;435694;1259;140527;-72
2024/01/15 18:14:53;;;;;;;19.30;10.20;;;;;;;-1.22;100.00;96993.33;433119;1260;140581;-69
2024/01/15 18:24:59;;;;;;;7.90;4.80;;;;;;;-1.10;100.00;96994.73;434314;1257;140567;-71
2024/01/15 18:35:06;;;;;;;1.10;1.00;;;;;;;-1.12;100.00;97087.39;433233;1260;140335;-63
2024/01/15 18:45:12;;;;;;;2.60;1.10;;;;;;;-1.63;100.00;97090.70;437252;1257;140616;-69
2024/01/15 18:55:21;;;;;;;1.90;1.50;;;;;;;-1.95;100.00;97093.95;432721;1260;140039;-65
2024/01/15 19:05:27;;;;;;;3.40;2.30;;;;;;;-2.08;100.00;97109.16;434600;1260;140548;-65
2024/01/15 19:15:31;;;;;;;;;;;;;;;-2.16;100.00;97127.96;433387;1257;140534;-64
2024/01/15 19:25:37;;;;;;;2.30;2.10;;;;;;;-2.23;100.00;97154.34;433295;1257;126995;-65
2024/01/15 19:35:43;;;;;;;5.00;2.70;;;;;;;-2.25;100.00;97171.08;432776;1260;140612;-69
2024/01/15 19:45:47;;;;;;;;;;;;;;;-2.24;100.00;97193.53;438252;1257;141189;-73
2024/01/15 19:55:55;;;;;;;7.50;2.20;;;;;;;-2.24;100.00;97207.05;433627;1260;127227;-75
2024/01/15 20:06:02;;;;;;;6.30;2.50;;;;;;;-2.27;100.00;97221.39;438161;1258;140113;-74
2024/01/15 20:16:13;;;;;;;3.10;2.20;;;;;;;-2.33;100.00;97241.42;437975;1258;141113;-74
2024/01/15 20:26:18;;;;;;;1.90;1.80;;;;;;;-2.32;100.00;97249.76;438164;1257;140096;-75
2024/01/15 20:36:26;;;;;;;3.40;1.70;;;;;;;-2.35;100.00;97265.67;436239;1258;140725;-71
2024/01/15 20:46:31;;;;;;;2.00;1.40;;;;;;;-2.38;100.00;97287.40;432667;1260;140161;-69
2024/01/15 20:56:37;;;;;;;0.90;0.90;;;;;;;-2.44;100.00;97304.30;432798;1258;140462;-69
2024/01/15 21:06:43;;;;;;;1.40;1.20;;;;;;;-2.70;100.00;97332.89;433045;1260;141865;-70
2024/01/15 21:16:48;;;;;;;;;;;;;;;-3.15;100.00;97350.85;432857;1260;140595;-70
2024/01/15 21:26:56;;;;;;;3.40;1.80;;;;;;;-3.56;100.00;97364.23;437419;1257;126659;-71
2024/01/15 21:37:02;;;;;;;3.40;1.80;;;;;;;-3.88;100.00;97374.77;435972;1255;141107;-71
2024/01/15 21:47:10;;;;;;;2.40;1.90;;;;;;;-4.17;100.00;97394.06;434642;1259;141654;-71
2024/01/15 21:57:16;;;;;;;2.70;1.60;;;;;;;-4.32;100.00;97414.80;433127;1258;140463;-69
2024/01/15 22:07:22;;;;;;;3.40;2.10;;;;;;;-4.18;100.00;97429.50;432983;1260;140242;-70
2024/01/15 22:17:26;;;;;;;;;;;;;;;-3.94;100.00;97445.98;432643;1256;140750;-70
2024/01/15 22:27:32;;;;;;;4.90;1.70;;;;;;;-3.70;100.00;97456.15;433056;1258;127584;-71
2024/01/15 22:37:37;;;;;;;;;;;;;;;-3.51;100.00;97471.80;432891;1260;139765;-70
2024/01/15 22:47:43;;;;;;;3.60;1.70;;;;;;;-3.36;100.00;97478.55;432885;1260;126656;-71
2024/01/15 22:57:49;;;;;;;4.80;1.90;;;;;;;-3.27;100.00;97491.02;436128;1260;140158;-77
2024/01/15 23:07:53;;;;;;;;;;;;;;;-3.23;100.00;97505.58;437919;1256;139706;-68
2024/01/15 23:18:00;;;;;;;3.60;2.00;;;;;;;-3.20;100.00;97522.55;436904;1255;127439;-68
2024/01/15 23:28:07;;;;;;;4.90;2.80;;;;;;;-3.19;100.00;97531.08;434436;1259;140650;-68
2024/01/15 23:38:13;;;;;;;5.30;2.40;;;;;;;-3.20;100.00;97549.93;433222;1258;139739;-68
2024/01/15 23:48:19;;;;;;;5.50;2.20;;;;;;;-3.21;100.00;97553.61;432945;1258;140422;-68
2024/01/15 23:58:23;;;;;;;;;;;;;;;-3.24;100.00;97568.56;433280;1256;140713;-68
